Gainesville, Missouri
Current Conditions -  °F | °C
As of 3:21 AM on Monday 24 Nov 2014 (Local Time) from KBPK Reporting Station
Broken Clouds Broken Clouds  
Wind Chill: 35°   Ceiling: 8500
Heat Index: 42°   Visibility: 10mi
Dew Point: 35°   Wind: 13mph
Humidity: 76%   Direction: 300°WNW
Pressure: 29.58"   Gusts: 23mph
Location:  36.6°N, 92.43°W
Report Text: KBPK 240921Z AUTO 30011G20KT 260V010 10SM FEW022 SCT033 BKN085 06/02 A2958 RMK AO2 T00560017
Loading
Personal Weather Stations






























Interactive Weather Map New forecast layout! Learn more

10-Day Weather Forecast

Advertisements
Track Severe Weather on mobile